sensor_id;sensor_type;location;lat;lon;timestamp;temperature;humidity
75865;HTU21D;64510;46.704;38.274;2023-01-23T00:01:48;0.66;101.51
75865;HTU21D;64510;46.704;38.274;2023-01-23T00:04:15;0.65;101.54
75865;HTU21D;64510;46.704;38.274;2023-01-23T00:06:41;0.64;101.51
75865;HTU21D;64510;46.704;38.274;2023-01-23T00:09:07;0.64;101.53
75865;HTU21D;64510;46.704;38.274;2023-01-23T00:11:33;0.61;101.76
75865;HTU21D;64510;46.704;38.274;2023-01-23T00:14:00;0.62;101.58
75865;HTU21D;64510;46.704;38.274;2023-01-23T00:16:29;0.60;101.52
75865;HTU21D;64510;46.704;38.274;2023-01-23T00:18:55;0.60;101.50
75865;HTU21D;64510;46.704;38.274;2023-01-23T00:21:24;0.55;101.54
75865;HTU21D;64510;46.704;38.274;2023-01-23T00:23:53;0.53;101.66
75865;HTU21D;64510;46.704;38.274;2023-01-23T00:26:23;0.53;101.54
75865;HTU21D;64510;46.704;38.274;2023-01-23T00:28:49;0.49;101.48
75865;HTU21D;64510;46.704;38.274;2023-01-23T00:31:21;0.47;101.60
75865;HTU21D;64510;46.704;38.274;2023-01-23T00:33:53;0.45;101.70
75865;HTU21D;64510;46.704;38.274;2023-01-23T00:36:22;0.42;101.86
75865;HTU21D;64510;46.704;38.274;2023-01-23T00:38:48;0.42;101.90
75865;HTU21D;64510;46.704;38.274;2023-01-23T00:41:14;0.42;101.80
75865;HTU21D;64510;46.704;38.274;2023-01-23T00:43:40;0.42;101.72
75865;HTU21D;64510;46.704;38.274;2023-01-23T00:46:06;0.39;101.81
75865;HTU21D;64510;46.704;38.274;2023-01-23T00:48:32;0.38;101.78
75865;HTU21D;64510;46.704;38.274;2023-01-23T00:50:58;0.38;101.77
75865;HTU21D;64510;46.704;38.274;2023-01-23T00:53:24;0.33;101.81
75865;HTU21D;64510;46.704;38.274;2023-01-23T00:55:50;0.33;101.74
75865;HTU21D;64510;46.704;38.274;2023-01-23T00:58:16;0.29;101.71
75865;HTU21D;64510;46.704;38.274;2023-01-23T01:00:43;0.23;101.99
75865;HTU21D;64510;46.704;38.274;2023-01-23T01:03:09;0.24;101.68
75865;HTU21D;64510;46.704;38.274;2023-01-23T01:05:35;0.21;101.98
75865;HTU21D;64510;46.704;38.274;2023-01-23T01:08:02;0.19;102.10
75865;HTU21D;64510;46.704;38.274;2023-01-23T01:10:29;0.21;102.02
75865;HTU21D;64510;46.704;38.274;2023-01-23T01:12:58;0.22;101.87
75865;HTU21D;64510;46.704;38.274;2023-01-23T01:15:25;0.23;101.86
75865;HTU21D;64510;46.704;38.274;2023-01-23T01:17:51;0.22;102.04
75865;HTU21D;64510;46.704;38.274;2023-01-23T01:20:21;0.19;102.10
75865;HTU21D;64510;46.704;38.274;2023-01-23T01:22:49;0.19;102.29
75865;HTU21D;64510;46.704;38.274;2023-01-23T01:25:15;0.18;102.27
75865;HTU21D;64510;46.704;38.274;2023-01-23T01:27:41;0.19;102.43
75865;HTU21D;64510;46.704;38.274;2023-01-23T01:30:07;0.18;102.35
75865;HTU21D;64510;46.704;38.274;2023-01-23T01:32:37;0.20;102.06
75865;HTU21D;64510;46.704;38.274;2023-01-23T01:35:04;0.19;102.10
75865;HTU21D;64510;46.704;38.274;2023-01-23T01:37:41;0.17;101.96
75865;HTU21D;64510;46.704;38.274;2023-01-23T01:40:11;0.14;102.11
75865;HTU21D;64510;46.704;38.274;2023-01-23T01:42:42;0.14;101.99
75865;HTU21D;64510;46.704;38.274;2023-01-23T01:48:12;0.12;102.18
75865;HTU21D;64510;46.704;38.274;2023-01-23T01:50:38;0.09;102.09
75865;HTU21D;64510;46.704;38.274;2023-01-23T01:53:05;0.10;102.05
75865;HTU21D;64510;46.704;38.274;2023-01-23T01:55:31;0.10;102.07
75865;HTU21D;64510;46.704;38.274;2023-01-23T01:57:57;0.12;102.10
75865;HTU21D;64510;46.704;38.274;2023-01-23T02:00:23;0.09;102.07
75865;HTU21D;64510;46.704;38.274;2023-01-23T02:02:50;0.08;102.14
75865;HTU21D;64510;46.704;38.274;2023-01-23T02:05:32;0.10;102.28
75865;HTU21D;64510;46.704;38.274;2023-01-23T02:08:06;0.09;102.22
75865;HTU21D;64510;46.704;38.274;2023-01-23T02:10:33;0.10;102.41
75865;HTU21D;64510;46.704;38.274;2023-01-23T02:13:26;0.10;102.09
75865;HTU21D;64510;46.704;38.274;2023-01-23T02:16:00;0.08;102.14
75865;HTU21D;64510;46.704;38.274;2023-01-23T02:18:27;0.09;102.15
75865;HTU21D;64510;46.704;38.274;2023-01-23T02:20:55;0.07;102.10
75865;HTU21D;64510;46.704;38.274;2023-01-23T02:23:29;0.06;102.32
75865;HTU21D;64510;46.704;38.274;2023-01-23T02:26:04;0.06;102.25
75865;HTU21D;64510;46.704;38.274;2023-01-23T02:28:44;0.08;102.06
75865;HTU21D;64510;46.704;38.274;2023-01-23T02:31:13;0.08;102.15
75865;HTU21D;64510;46.704;38.274;2023-01-23T02:36:06;0.07;102.08
75865;HTU21D;64510;46.704;38.274;2023-01-23T02:38:47;0.05;102.15
75865;HTU21D;64510;46.704;38.274;2023-01-23T02:41:22;0.07;102.15
75865;HTU21D;64510;46.704;38.274;2023-01-23T02:43:49;0.06;102.12
75865;HTU21D;64510;46.704;38.274;2023-01-23T02:46:17;0.05;102.23
75865;HTU21D;64510;46.704;38.274;2023-01-23T02:48:45;0.07;102.06
75865;HTU21D;64510;46.704;38.274;2023-01-23T02:51:12;0.12;102.18
75865;HTU21D;64510;46.704;38.274;2023-01-23T02:53:38;0.10;102.30
75865;HTU21D;64510;46.704;38.274;2023-01-23T02:56:07;0.15;102.25
75865;HTU21D;64510;46.704;38.274;2023-01-23T02:58:33;0.22;102.26
75865;HTU21D;64510;46.704;38.274;2023-01-23T03:01:17;0.31;102.34
75865;HTU21D;64510;46.704;38.274;2023-01-23T03:03:43;0.40;102.28
75865;HTU21D;64510;46.704;38.274;2023-01-23T03:06:10;0.50;102.25
75865;HTU21D;64510;46.704;38.274;2023-01-23T03:08:36;0.58;102.19
75865;HTU21D;64510;46.704;38.274;2023-01-23T03:11:16;0.65;102.17
75865;HTU21D;64510;46.704;38.274;2023-01-23T03:13:44;0.74;102.06
75865;HTU21D;64510;46.704;38.274;2023-01-23T03:16:11;0.78;101.83
75865;HTU21D;64510;46.704;38.274;2023-01-23T03:18:37;0.84;101.80
75865;HTU21D;64510;46.704;38.274;2023-01-23T03:21:04;0.90;101.68
75865;HTU21D;64510;46.704;38.274;2023-01-23T03:23:30;0.96;101.50
75865;HTU21D;64510;46.704;38.274;2023-01-23T03:25:56;0.99;101.32
75865;HTU21D;64510;46.704;38.274;2023-01-23T03:28:28;1.03;101.13
75865;HTU21D;64510;46.704;38.274;2023-01-23T03:31:15;1.07;101.10
75865;HTU21D;64510;46.704;38.274;2023-01-23T03:33:42;1.10;100.80
75865;HTU21D;64510;46.704;38.274;2023-01-23T03:36:11;1.10;100.35
75865;HTU21D;64510;46.704;38.274;2023-01-23T03:38:38;1.12;100.36
75865;HTU21D;64510;46.704;38.274;2023-01-23T03:41:06;1.12;100.25
75865;HTU21D;64510;46.704;38.274;2023-01-23T03:43:51;1.13;100.16
75865;HTU21D;64510;46.704;38.274;2023-01-23T03:46:17;1.13;100.04
75865;HTU21D;64510;46.704;38.274;2023-01-23T03:48:43;1.17;100.11
75865;HTU21D;64510;46.704;38.274;2023-01-23T03:51:09;1.18;99.93
75865;HTU21D;64510;46.704;38.274;2023-01-23T03:53:35;1.19;99.95
75865;HTU21D;64510;46.704;38.274;2023-01-23T03:56:02;1.20;99.77
75865;HTU21D;64510;46.704;38.274;2023-01-23T03:58:28;1.22;99.48
75865;HTU21D;64510;46.704;38.274;2023-01-23T04:00:55;1.22;99.50
75865;HTU21D;64510;46.704;38.274;2023-01-23T04:03:21;1.22;99.35
75865;HTU21D;64510;46.704;38.274;2023-01-23T04:05:47;1.23;99.35
75865;HTU21D;64510;46.704;38.274;2023-01-23T04:08:15;1.22;99.13
75865;HTU21D;64510;46.704;38.274;2023-01-23T04:10:42;1.21;98.96
75865;HTU21D;64510;46.704;38.274;2023-01-23T04:13:14;1.21;99.08
75865;HTU21D;64510;46.704;38.274;2023-01-23T04:15:41;1.22;99.20
75865;HTU21D;64510;46.704;38.274;2023-01-23T04:18:06;1.22;98.94
75865;HTU21D;64510;46.704;38.274;2023-01-23T04:20:32;1.21;98.90
75865;HTU21D;64510;46.704;38.274;2023-01-23T04:22:58;1.24;98.97
75865;HTU21D;64510;46.704;38.274;2023-01-23T04:25:26;1.22;98.83
75865;HTU21D;64510;46.704;38.274;2023-01-23T04:27:53;1.21;98.80
75865;HTU21D;64510;46.704;38.274;2023-01-23T04:30:20;1.23;98.69
75865;HTU21D;64510;46.704;38.274;2023-01-23T04:32:46;1.24;98.60
75865;HTU21D;64510;46.704;38.274;2023-01-23T04:35:15;1.23;98.61
75865;HTU21D;64510;46.704;38.274;2023-01-23T04:37:42;1.22;98.57
75865;HTU21D;64510;46.704;38.274;2023-01-23T04:40:09;1.23;98.54
75865;HTU21D;64510;46.704;38.274;2023-01-23T04:42:47;1.25;98.33
75865;HTU21D;64510;46.704;38.274;2023-01-23T04:45:27;1.24;98.22
75865;HTU21D;64510;46.704;38.274;2023-01-23T04:48:16;1.23;98.10
75865;HTU21D;64510;46.704;38.274;2023-01-23T04:50:42;1.25;98.19
75865;HTU21D;64510;46.704;38.274;2023-01-23T04:53:10;1.25;98.12
75865;HTU21D;64510;46.704;38.274;2023-01-23T04:55:37;1.24;98.10
75865;HTU21D;64510;46.704;38.274;2023-01-23T04:58:06;1.25;98.03
75865;HTU21D;64510;46.704;38.274;2023-01-23T05:00:31;1.26;97.92
75865;HTU21D;64510;46.704;38.274;2023-01-23T05:02:59;1.28;97.75
75865;HTU21D;64510;46.704;38.274;2023-01-23T05:05:28;1.24;97.79
75865;HTU21D;64510;46.704;38.274;2023-01-23T05:07:58;1.23;97.85
75865;HTU21D;64510;46.704;38.274;2023-01-23T05:10:24;1.24;97.78
75865;HTU21D;64510;46.704;38.274;2023-01-23T05:12:50;1.23;97.77
75865;HTU21D;64510;46.704;38.274;2023-01-23T05:15:16;1.26;97.65
75865;HTU21D;64510;46.704;38.274;2023-01-23T05:17:44;1.24;97.68
75865;HTU21D;64510;46.704;38.274;2023-01-23T05:20:11;1.23;97.61
75865;HTU21D;64510;46.704;38.274;2023-01-23T05:22:38;1.24;97.74
75865;HTU21D;64510;46.704;38.274;2023-01-23T05:25:35;1.26;97.67
75865;HTU21D;64510;46.704;38.274;2023-01-23T05:28:02;1.24;97.71
75865;HTU21D;64510;46.704;38.274;2023-01-23T05:30:30;1.25;97.61
75865;HTU21D;64510;46.704;38.274;2023-01-23T05:33:11;1.24;97.63
75865;HTU21D;64510;46.704;38.274;2023-01-23T05:35:38;1.23;97.61
75865;HTU21D;64510;46.704;38.274;2023-01-23T05:38:05;1.17;97.51
75865;HTU21D;64510;46.704;38.274;2023-01-23T05:40:31;1.13;97.50
75865;HTU21D;64510;46.704;38.274;2023-01-23T05:43:15;1.09;97.73
75865;HTU21D;64510;46.704;38.274;2023-01-23T05:46:00;1.07;97.76
75865;HTU21D;64510;46.704;38.274;2023-01-23T05:48:42;1.05;97.85
75865;HTU21D;64510;46.704;38.274;2023-01-23T05:51:10;1.06;97.81
75865;HTU21D;64510;46.704;38.274;2023-01-23T05:53:36;1.05;97.74
75865;HTU21D;64510;46.704;38.274;2023-01-23T05:56:07;1.08;97.92
75865;HTU21D;64510;46.704;38.274;2023-01-23T05:58:40;1.07;97.82
75865;HTU21D;64510;46.704;38.274;2023-01-23T06:01:29;1.10;97.74
75865;HTU21D;64510;46.704;38.274;2023-01-23T06:04:13;1.08;97.75
75865;HTU21D;64510;46.704;38.274;2023-01-23T06:07:00;1.09;97.94
75865;HTU21D;64510;46.704;38.274;2023-01-23T06:09:27;1.11;97.79
75865;HTU21D;64510;46.704;38.274;2023-01-23T06:11:52;1.14;97.75
75865;HTU21D;64510;46.704;38.274;2023-01-23T06:14:19;1.17;97.57
75865;HTU21D;64510;46.704;38.274;2023-01-23T06:16:45;1.19;97.55
75865;HTU21D;64510;46.704;38.274;2023-01-23T06:19:11;1.21;97.52
75865;HTU21D;64510;46.704;38.274;2023-01-23T06:21:38;1.23;97.44
75865;HTU21D;64510;46.704;38.274;2023-01-23T06:24:04;1.24;97.18
75865;HTU21D;64510;46.704;38.274;2023-01-23T06:26:30;1.25;97.22
75865;HTU21D;64510;46.704;38.274;2023-01-23T06:28:56;1.28;97.03
75865;HTU21D;64510;46.704;38.274;2023-01-23T06:31:22;1.27;96.79
75865;HTU21D;64510;46.704;38.274;2023-01-23T06:33:52;1.32;96.83
75865;HTU21D;64510;46.704;38.274;2023-01-23T06:36:22;1.32;96.84
75865;HTU21D;64510;46.704;38.274;2023-01-23T06:38:48;1.32;96.82
75865;HTU21D;64510;46.704;38.274;2023-01-23T06:41:15;1.34;96.81
75865;HTU21D;64510;46.704;38.274;2023-01-23T06:43:48;1.33;96.81
75865;HTU21D;64510;46.704;38.274;2023-01-23T06:46:19;1.33;96.75
75865;HTU21D;64510;46.704;38.274;2023-01-23T06:48:45;1.35;96.83
75865;HTU21D;64510;46.704;38.274;2023-01-23T06:51:11;1.38;96.69
75865;HTU21D;64510;46.704;38.274;2023-01-23T06:53:40;1.41;96.52
75865;HTU21D;64510;46.704;38.274;2023-01-23T06:56:06;1.38;96.58
75865;HTU21D;64510;46.704;38.274;2023-01-23T06:58:35;1.39;96.44
75865;HTU21D;64510;46.704;38.274;2023-01-23T07:01:08;1.40;96.39
75865;HTU21D;64510;46.704;38.274;2023-01-23T07:03:57;1.37;96.49
75865;HTU21D;64510;46.704;38.274;2023-01-23T07:06:23;1.38;96.51
75865;HTU21D;64510;46.704;38.274;2023-01-23T07:08:49;1.37;96.52
75865;HTU21D;64510;46.704;38.274;2023-01-23T07:11:15;1.37;96.58
75865;HTU21D;64510;46.704;38.274;2023-01-23T07:13:42;1.36;96.65
75865;HTU21D;64510;46.704;38.274;2023-01-23T07:16:08;1.36;96.56
75865;HTU21D;64510;46.704;38.274;2023-01-23T07:18:34;1.36;96.55
75865;HTU21D;64510;46.704;38.274;2023-01-23T07:21:04;1.39;96.58
75865;HTU21D;64510;46.704;38.274;2023-01-23T07:23:31;1.40;96.59
75865;HTU21D;64510;46.704;38.274;2023-01-23T07:25:59;1.41;96.55
75865;HTU21D;64510;46.704;38.274;2023-01-23T07:28:25;1.45;96.50
75865;HTU21D;64510;46.704;38.274;2023-01-23T07:30:51;1.46;96.62
75865;HTU21D;64510;46.704;38.274;2023-01-23T07:33:17;1.46;96.54
75865;HTU21D;64510;46.704;38.274;2023-01-23T07:35:43;1.49;96.45
75865;HTU21D;64510;46.704;38.274;2023-01-23T07:38:09;1.53;96.47
75865;HTU21D;64510;46.704;38.274;2023-01-23T07:40:34;1.55;96.25
75865;HTU21D;64510;46.704;38.274;2023-01-23T07:43:04;1.54;96.33
75865;HTU21D;64510;46.704;38.274;2023-01-23T07:45:30;1.54;96.17
75865;HTU21D;64510;46.704;38.274;2023-01-23T07:47:56;1.58;96.20
75865;HTU21D;64510;46.704;38.274;2023-01-23T07:50:21;1.58;96.05
75865;HTU21D;64510;46.704;38.274;2023-01-23T07:52:47;1.58;95.99
75865;HTU21D;64510;46.704;38.274;2023-01-23T07:55:13;1.57;95.98
75865;HTU21D;64510;46.704;38.274;2023-01-23T07:57:39;1.60;95.98
75865;HTU21D;64510;46.704;38.274;2023-01-23T08:00:05;1.60;95.98
75865;HTU21D;64510;46.704;38.274;2023-01-23T08:02:38;1.61;95.87
75865;HTU21D;64510;46.704;38.274;2023-01-23T08:05:04;1.61;95.84
75865;HTU21D;64510;46.704;38.274;2023-01-23T08:07:30;1.58;95.71
75865;HTU21D;64510;46.704;38.274;2023-01-23T08:09:56;1.55;95.66
75865;HTU21D;64510;46.704;38.274;2023-01-23T08:12:22;1.56;95.81
75865;HTU21D;64510;46.704;38.274;2023-01-23T08:14:47;1.60;95.64
75865;HTU21D;64510;46.704;38.274;2023-01-23T08:17:13;1.58;95.64
75865;HTU21D;64510;46.704;38.274;2023-01-23T08:19:39;1.58;95.51
75865;HTU21D;64510;46.704;38.274;2023-01-23T08:22:05;1.58;95.57
75865;HTU21D;64510;46.704;38.274;2023-01-23T08:24:31;1.61;95.49
75865;HTU21D;64510;46.704;38.274;2023-01-23T08:26:57;1.58;95.41
75865;HTU21D;64510;46.704;38.274;2023-01-23T08:29:23;1.60;95.31
75865;HTU21D;64510;46.704;38.274;2023-01-23T08:31:49;1.60;95.36
75865;HTU21D;64510;46.704;38.274;2023-01-23T08:34:20;1.58;95.31
75865;HTU21D;64510;46.704;38.274;2023-01-23T08:36:46;1.60;95.32
75865;HTU21D;64510;46.704;38.274;2023-01-23T08:39:12;1.60;95.46
75865;HTU21D;64510;46.704;38.274;2023-01-23T08:41:37;1.62;95.26
75865;HTU21D;64510;46.704;38.274;2023-01-23T08:44:03;1.61;95.17
75865;HTU21D;64510;46.704;38.274;2023-01-23T08:46:29;1.61;95.20
75865;HTU21D;64510;46.704;38.274;2023-01-23T08:48:55;1.62;95.34
75865;HTU21D;64510;46.704;38.274;2023-01-23T08:51:21;1.65;95.33
75865;HTU21D;64510;46.704;38.274;2023-01-23T08:53:49;1.64;95.23
75865;HTU21D;64510;46.704;38.274;2023-01-23T08:56:17;1.64;95.34
75865;HTU21D;64510;46.704;38.274;2023-01-23T08:58:44;1.67;95.23
75865;HTU21D;64510;46.704;38.274;2023-01-23T09:01:12;1.66;95.17
75865;HTU21D;64510;46.704;38.274;2023-01-23T09:03:38;1.68;95.21
75865;HTU21D;64510;46.704;38.274;2023-01-23T09:06:05;1.68;95.17
75865;HTU21D;64510;46.704;38.274;2023-01-23T09:08:31;1.69;95.23
75865;HTU21D;64510;46.704;38.274;2023-01-23T09:11:01;1.71;95.20
75865;HTU21D;64510;46.704;38.274;2023-01-23T09:13:27;1.72;95.09
75865;HTU21D;64510;46.704;38.274;2023-01-23T09:15:53;1.75;95.05
75865;HTU21D;64510;46.704;38.274;2023-01-23T09:18:18;1.77;94.97
75865;HTU21D;64510;46.704;38.274;2023-01-23T09:20:48;1.76;94.91
75865;HTU21D;64510;46.704;38.274;2023-01-23T09:23:14;1.76;94.88
75865;HTU21D;64510;46.704;38.274;2023-01-23T09:25:40;1.77;94.76
75865;HTU21D;64510;46.704;38.274;2023-01-23T09:28:06;1.72;94.88
75865;HTU21D;64510;46.704;38.274;2023-01-23T09:30:31;1.68;94.81
75865;HTU21D;64510;46.704;38.274;2023-01-23T09:32:57;1.67;94.93
75865;HTU21D;64510;46.704;38.274;2023-01-23T09:35:23;1.67;94.89
75865;HTU21D;64510;46.704;38.274;2023-01-23T09:37:50;1.68;94.91
75865;HTU21D;64510;46.704;38.274;2023-01-23T09:40:37;1.66;94.95
75865;HTU21D;64510;46.704;38.274;2023-01-23T09:43:14;1.69;94.99
75865;HTU21D;64510;46.704;38.274;2023-01-23T09:45:48;1.68;94.81
75865;HTU21D;64510;46.704;38.274;2023-01-23T09:48:23;1.68;94.88
75865;HTU21D;64510;46.704;38.274;2023-01-23T09:51:03;1.73;94.90
75865;HTU21D;64510;46.704;38.274;2023-01-23T09:53:37;1.72;94.74
75865;HTU21D;64510;46.704;38.274;2023-01-23T09:56:18;1.73;94.88
75865;HTU21D;64510;46.704;38.274;2023-01-23T10:01:26;1.72;94.68
75865;HTU21D;64510;46.704;38.274;2023-01-23T10:03:53;1.76;94.62
75865;HTU21D;64510;46.704;38.274;2023-01-23T10:06:25;1.72;94.49
75865;HTU21D;64510;46.704;38.274;2023-01-23T10:09:19;1.77;94.65
75865;HTU21D;64510;46.704;38.274;2023-01-23T10:14:38;1.75;94.29
75865;HTU21D;64510;46.704;38.274;2023-01-23T10:17:52;1.75;94.43
75865;HTU21D;64510;46.704;38.274;2023-01-23T10:26:19;1.73;94.28
75865;HTU21D;64510;46.704;38.274;2023-01-23T10:28:46;1.77;94.34
75865;HTU21D;64510;46.704;38.274;2023-01-23T10:34:09;1.79;94.30
75865;HTU21D;64510;46.704;38.274;2023-01-23T10:36:45;1.79;94.25
75865;HTU21D;64510;46.704;38.274;2023-01-23T10:39:18;1.79;94.42
75865;HTU21D;64510;46.704;38.274;2023-01-23T10:41:45;1.79;94.28
75865;HTU21D;64510;46.704;38.274;2023-01-23T10:44:16;1.79;94.37
75865;HTU21D;64510;46.704;38.274;2023-01-23T10:46:53;1.81;94.36
75865;HTU21D;64510;46.704;38.274;2023-01-23T10:49:43;1.81;94.49
75865;HTU21D;64510;46.704;38.274;2023-01-23T10:54:58;1.82;94.53
75865;HTU21D;64510;46.704;38.274;2023-01-23T10:57:27;1.84;94.38
75865;HTU21D;64510;46.704;38.274;2023-01-23T10:59:59;1.84;94.48
75865;HTU21D;64510;46.704;38.274;2023-01-23T11:02:34;1.90;94.49
75865;HTU21D;64510;46.704;38.274;2023-01-23T11:05:08;1.92;94.30
75865;HTU21D;64510;46.704;38.274;2023-01-23T11:07:53;1.93;94.26
75865;HTU21D;64510;46.704;38.274;2023-01-23T11:10:22;1.93;94.27
75865;HTU21D;64510;46.704;38.274;2023-01-23T11:12:52;1.95;94.35
75865;HTU21D;64510;46.704;38.274;2023-01-23T11:15:22;1.96;94.11
75865;HTU21D;64510;46.704;38.274;2023-01-23T11:17:50;1.99;94.21
75865;HTU21D;64510;46.704;38.274;2023-01-23T11:20:31;2.02;94.24
75865;HTU21D;64510;46.704;38.274;2023-01-23T11:25:39;2.05;94.14
75865;HTU21D;64510;46.704;38.274;2023-01-23T11:28:28;2.08;94.26
75865;HTU21D;64510;46.704;38.274;2023-01-23T11:31:09;2.08;94.28
75865;HTU21D;64510;46.704;38.274;2023-01-23T11:33:45;2.13;94.30
75865;HTU21D;64510;46.704;38.274;2023-01-23T11:38:50;2.20;94.23
75865;HTU21D;64510;46.704;38.274;2023-01-23T11:41:17;2.22;93.98
75865;HTU21D;64510;46.704;38.274;2023-01-23T11:43:43;2.26;94.04
75865;HTU21D;64510;46.704;38.274;2023-01-23T11:51:33;2.37;93.30
75865;HTU21D;64510;46.704;38.274;2023-01-23T11:54:26;2.40;92.85
75865;HTU21D;64510;46.704;38.274;2023-01-23T12:01:19;2.44;92.69
75865;HTU21D;64510;46.704;38.274;2023-01-23T12:09:04;2.57;92.43
75865;HTU21D;64510;46.704;38.274;2023-01-23T12:19:58;2.72;91.14
75865;HTU21D;64510;46.704;38.274;2023-01-23T12:22:48;2.68;91.48
75865;HTU21D;64510;46.704;38.274;2023-01-23T12:25:34;2.51;91.82
75865;HTU21D;64510;46.704;38.274;2023-01-23T12:28:29;2.36;92.31
75865;HTU21D;64510;46.704;38.274;2023-01-23T12:31:23;2.23;92.91
75865;HTU21D;64510;46.704;38.274;2023-01-23T12:42:08;2.06;94.10
75865;HTU21D;64510;46.704;38.274;2023-01-23T12:47:30;2.07;94.00
75865;HTU21D;64510;46.704;38.274;2023-01-23T12:50:02;2.07;94.46
75865;HTU21D;64510;46.704;38.274;2023-01-23T12:55:12;2.17;94.32
75865;HTU21D;64510;46.704;38.274;2023-01-23T12:57:41;2.23;94.27
75865;HTU21D;64510;46.704;38.274;2023-01-23T13:00:15;2.30;94.17
75865;HTU21D;64510;46.704;38.274;2023-01-23T13:02:52;2.37;94.07
75865;HTU21D;64510;46.704;38.274;2023-01-23T13:05:52;2.43;94.09
75865;HTU21D;64510;46.704;38.274;2023-01-23T13:13:49;2.52;93.83
75865;HTU21D;64510;46.704;38.274;2023-01-23T13:16:17;2.55;93.89
75865;HTU21D;64510;46.704;38.274;2023-01-23T13:18:53;2.60;93.85
75865;HTU21D;64510;46.704;38.274;2023-01-23T13:21:38;2.62;93.81
75865;HTU21D;64510;46.704;38.274;2023-01-23T13:49:07;2.66;92.81
75865;HTU21D;64510;46.704;38.274;2023-01-23T13:51:59;2.60;92.81
75865;HTU21D;64510;46.704;38.274;2023-01-23T13:54:28;2.55;92.81
75865;HTU21D;64510;46.704;38.274;2023-01-23T13:57:15;2.50;92.93
75865;HTU21D;64510;46.704;38.274;2023-01-23T13:59:44;2.43;93.21
75865;HTU21D;64510;46.704;38.274;2023-01-23T14:02:16;2.41;93.17
75865;HTU21D;64510;46.704;38.274;2023-01-23T14:05:10;2.37;93.04
75865;HTU21D;64510;46.704;38.274;2023-01-23T14:07:38;2.28;93.25
75865;HTU21D;64510;46.704;38.274;2023-01-23T14:10:28;2.17;93.32
75865;HTU21D;64510;46.704;38.274;2023-01-23T14:15:32;1.92;93.85
75865;HTU21D;64510;46.704;38.274;2023-01-23T14:18:42;1.86;93.91
75865;HTU21D;64510;46.704;38.274;2023-01-23T14:23:48;1.73;94.38
75865;HTU21D;64510;46.704;38.274;2023-01-23T14:26:16;1.72;94.28
75865;HTU21D;64510;46.704;38.274;2023-01-23T14:28:55;1.68;95.10
75865;HTU21D;64510;46.704;38.274;2023-01-23T14:31:30;1.69;95.37
75865;HTU21D;64510;46.704;38.274;2023-01-23T14:34:02;1.73;95.18
75865;HTU21D;64510;46.704;38.274;2023-01-23T14:36:33;1.79;95.08
75865;HTU21D;64510;46.704;38.274;2023-01-23T14:39:01;1.87;95.04
75865;HTU21D;64510;46.704;38.274;2023-01-23T14:41:31;1.95;94.94
75865;HTU21D;64510;46.704;38.274;2023-01-23T14:43:58;2.00;95.01
75865;HTU21D;64510;46.704;38.274;2023-01-23T14:46:32;2.03;94.68
75865;HTU21D;64510;46.704;38.274;2023-01-23T14:49:00;2.06;94.56
75865;HTU21D;64510;46.704;38.274;2023-01-23T14:51:27;2.09;94.57
75865;HTU21D;64510;46.704;38.274;2023-01-23T14:54:17;2.12;94.48
75865;HTU21D;64510;46.704;38.274;2023-01-23T14:56:44;2.16;94.46
75865;HTU21D;64510;46.704;38.274;2023-01-23T14:59:24;2.20;94.33
75865;HTU21D;64510;46.704;38.274;2023-01-23T15:01:56;2.23;94.23
75865;HTU21D;64510;46.704;38.274;2023-01-23T15:04:24;2.26;94.17
75865;HTU21D;64510;46.704;38.274;2023-01-23T15:06:57;2.31;93.95
75865;HTU21D;64510;46.704;38.274;2023-01-23T15:09:27;2.38;93.87
75865;HTU21D;64510;46.704;38.274;2023-01-23T15:11:55;2.38;93.71
75865;HTU21D;64510;46.704;38.274;2023-01-23T15:14:26;2.39;93.67
75865;HTU21D;64510;46.704;38.274;2023-01-23T15:17:03;2.37;93.51
75865;HTU21D;64510;46.704;38.274;2023-01-23T15:19:30;2.34;93.47
75865;HTU21D;64510;46.704;38.274;2023-01-23T15:22:28;2.37;93.50
75865;HTU21D;64510;46.704;38.274;2023-01-23T15:24:55;2.38;93.49
75865;HTU21D;64510;46.704;38.274;2023-01-23T15:29:51;2.38;93.25
75865;HTU21D;64510;46.704;38.274;2023-01-23T15:32:23;2.34;93.17
75865;HTU21D;64510;46.704;38.274;2023-01-23T15:34:54;2.27;93.21
75865;HTU21D;64510;46.704;38.274;2023-01-23T15:39:57;2.12;93.37
75865;HTU21D;64510;46.704;38.274;2023-01-23T15:42:32;2.10;93.53
75865;HTU21D;64510;46.704;38.274;2023-01-23T15:44:58;2.12;93.53
75865;HTU21D;64510;46.704;38.274;2023-01-23T15:47:29;2.14;93.54
75865;HTU21D;64510;46.704;38.274;2023-01-23T15:49:56;2.15;93.49
75865;HTU21D;64510;46.704;38.274;2023-01-23T15:52:47;2.16;93.52
75865;HTU21D;64510;46.704;38.274;2023-01-23T15:55:13;2.16;93.54
75865;HTU21D;64510;46.704;38.274;2023-01-23T15:57:40;2.20;93.55
75865;HTU21D;64510;46.704;38.274;2023-01-23T16:00:25;2.24;93.50
75865;HTU21D;64510;46.704;38.274;2023-01-23T16:02:53;2.27;93.40
75865;HTU21D;64510;46.704;38.274;2023-01-23T16:05:21;2.34;93.15
75865;HTU21D;64510;46.704;38.274;2023-01-23T16:07:47;2.36;93.22
75865;HTU21D;64510;46.704;38.274;2023-01-23T16:10:20;2.34;93.09
75865;HTU21D;64510;46.704;38.274;2023-01-23T16:12:48;2.31;93.10
75865;HTU21D;64510;46.704;38.274;2023-01-23T16:15:21;2.31;93.15
75865;HTU21D;64510;46.704;38.274;2023-01-23T16:17:47;2.30;93.06
75865;HTU21D;64510;46.704;38.274;2023-01-23T16:20:16;2.25;93.09
75865;HTU21D;64510;46.704;38.274;2023-01-23T16:22:43;2.21;93.08
75865;HTU21D;64510;46.704;38.274;2023-01-23T16:25:38;2.21;93.23
75865;HTU21D;64510;46.704;38.274;2023-01-23T16:28:05;2.14;93.28
75865;HTU21D;64510;46.704;38.274;2023-01-23T16:30:31;2.11;93.47
75865;HTU21D;64510;46.704;38.274;2023-01-23T16:32:57;2.09;93.49
75865;HTU21D;64510;46.704;38.274;2023-01-23T16:35:23;2.07;93.63
75865;HTU21D;64510;46.704;38.274;2023-01-23T16:37:51;2.03;93.67
75865;HTU21D;64510;46.704;38.274;2023-01-23T16:40:24;2.00;93.81
75865;HTU21D;64510;46.704;38.274;2023-01-23T16:42:59;1.95;94.25
75865;HTU21D;64510;46.704;38.274;2023-01-23T16:45:51;1.96;94.29
75865;HTU21D;64510;46.704;38.274;2023-01-23T16:48:44;1.92;94.34
75865;HTU21D;64510;46.704;38.274;2023-01-23T16:51:15;1.94;94.56
75865;HTU21D;64510;46.704;38.274;2023-01-23T16:53:47;2.01;94.39
75865;HTU21D;64510;46.704;38.274;2023-01-23T16:56:29;2.10;94.23
75865;HTU21D;64510;46.704;38.274;2023-01-23T16:58:57;2.15;93.95
75865;HTU21D;64510;46.704;38.274;2023-01-23T17:01:23;2.19;93.82
75865;HTU21D;64510;46.704;38.274;2023-01-23T17:03:58;2.19;93.66
75865;HTU21D;64510;46.704;38.274;2023-01-23T17:06:24;2.19;93.50
75865;HTU21D;64510;46.704;38.274;2023-01-23T17:08:50;2.14;93.40
75865;HTU21D;64510;46.704;38.274;2023-01-23T17:11:29;2.15;93.49
75865;HTU21D;64510;46.704;38.274;2023-01-23T17:14:00;2.11;93.40
75865;HTU21D;64510;46.704;38.274;2023-01-23T17:16:27;2.06;93.40
75865;HTU21D;64510;46.704;38.274;2023-01-23T17:18:55;2.00;93.53
75865;HTU21D;64510;46.704;38.274;2023-01-23T17:21:22;1.95;93.83